Résultats

Cross de la Nativit. Édition 2015.

1 Km
27/03/2015 à 08:00:00 - Aix en Provence (0)
101 arrivant(e)s.


 
Les autres classements de cet évènement




Place▲ Temps Dossard Nom Prenom Categ #Categ Sexe #Sexe Club Vit Moy Diplôme Partager
1 00:05:05 1052 LEMAITRE ANTOINE CAM 1 M 1 AIX ATHLETISME PROVENCE 0
2 00:05:09 1013 MICHEL PAUL MIM 1 M 2 2 3 0
3 00:05:17 1117 DE-VITIS GUILLAUME CAM 2 M 3 2 6 0
4 00:05:19 1162 MARTIN HUGO CAM 3 M 4 2 7 0
5 00:05:23 1042 FANTESINI BASTIEN CAM 4 M 5 2 4 0
6 00:05:29 1170 PHILIZOR BAPTISTE CAM 5 M 6 2 7 0
7 00:05:29 1017 POUSSARDIN MATIS CAM 6 M 7 0
8 00:05:30 1147 CARANTA THIBAUT CAM 7 M 8 2 7 0
9 00:05:34 1138 TOURET ARTHUR CAM 8 M 9 2 6 0
10 00:05:34 1149 COULON CHARLES CAM 9 M 10 2 7 0
11 00:05:34 944 STEINLIN HADRIEN CAM 10 M 11 2 1 0
12 00:05:38 911 ANDRE-GALLIS THIBAUT CAM 11 M 12 2 1 0
13 00:05:48 1005 LAMY BRIEUC CAM 12 M 13 0
14 00:05:50 1107 BOURDON HUGO CAM 13 M 14 2 6 0
15 00:05:50 938 MURADIAN NOE CAM 14 M 15 2 1 0
16 00:05:51 1167 MOSKOVTCHENKO LOUIS CAM 15 M 16 0
17 00:05:53 945 THIERCELIN OSCAR CAM 16 M 17 2 1 0
18 00:06:01 1086 LE-PHILIPPE-RATTIER TITOUAN CAM 17 M 18 2 5 0
19 00:06:02 967 LE-PEUCH MAE CAM 18 M 19 2 2 0
20 00:06:04 965 JASPARD ARTHUR CAM 19 M 20 2 2 0
21 00:06:04 1004 KMIECKOWIAK HENRI CAM 20 M 21 2 3 0
22 00:06:07 1029 BORTOLI JEAN-BAPTISTE CAM 21 M 22 2 4 0
23 00:06:07 1033 CAUWELIER LOUIS CAM 22 M 23 2 4 0
24 00:06:08 1084 LACROIX ANTOINE CAM 23 M 24 2 5 0
25 00:06:08 959 GRANDJEAN ALEXANDRE CAM 24 M 25 2 2 0
26 00:06:09 1160 LEVEQUE VALENTIN CAM 25 M 26 2 7 0
27 00:06:09 1054 MILAZZO JULIEN CAM 26 M 27 2 4 0
28 00:06:11 941 ROUX FELIX MIM 2 M 28 2 1 0
29 00:06:12 1010 LONGUEVILLE FLORIAN CAM 27 M 29 2 3 0
30 00:06:12 1064 ANSART SACHA CAM 28 M 30 2 5 0
31 00:06:12 917 CIVIDIN LUCAS MIM 3 M 31 2 1 0
32 00:06:14 986 BARILLER ENGUERRAND CAM 29 M 32 2 3 0
33 00:06:16 921 FAVRE BAPTISTE CAM 30 M 33 2 1 0
34 00:06:17 1106 BASILLAIS THOMAS CAM 31 M 34 2 6 0
35 00:06:19 934 MAURE DUNCAN CAM 32 M 35 2 1 0
36 00:06:21 981 SCHILLACI COSTIA CAM 33 M 36 2 2 0
37 00:06:21 1059 ROUYER DAVID CAM 34 M 37 0
38 00:06:23 916 CHAHINIAN ADRIEN CAM 35 M 38 2 1 0
39 00:06:24 1145 BLOCAILLE THOMAS CAM 36 M 39 2 7 0
40 00:06:25 1055 NICOLLE THOMAS-ALEXANDRE MIM 4 M 40 2 4 0
41 00:06:25 926 HAINSSELIN PAUL MIM 5 M 41 2 1 0
42 00:06:28 1161 MANEILLE CYRIL CAM 37 M 42 2 7 0
43 00:06:28 1060 SALINGUE GUILLAUME MIM 6 M 43 2 4 0
44 00:06:28 1153 DUGAS GUILLAUME MIM 7 M 44 2 7 0
45 00:06:32 936 MEYER PAUL CAM 38 M 45 2 1 0
46 00:06:32 1036 CONSTANT ROMAIN CAM 39 M 46 2 4 0
47 00:06:32 1140 AGARD AMAURY CAM 40 M 47 2 7 0
48 00:06:33 1098 VANNESTE TOM CAM 41 M 48 2 5 0
49 00:06:34 1015 MONDONNET BAPTISTE CAM 42 M 49 2 3 0
50 00:06:34 1081 GRANDI-BANDIKIAN LUDOVIC CAM 43 M 50 2 5 0
51 00:06:35 1058 PIERRON QUENTIN CAM 44 M 51 2 4 0
52 00:06:35 1173 ROUSSEAU GABRIEL CAM 45 M 52 2 7 0
53 00:06:35 1085 LAFONTAN THIBAULT CAM 46 M 53 2 5 0
54 00:06:36 1141 AILLAUD MATHIEU CAM 47 M 54 2 7 0
55 00:06:36 1139 TOUTIN HUGO CAM 48 M 55 2 6 0
56 00:06:38 947 VILLETARD PAUL CAM 49 M 56 2 1 0
57 00:06:38 961 GRENIER THOMAS CAM 50 M 57 2 2 0
58 00:06:39 1019 STARSBERG TJARDO CAM 51 M 58 2 3 0
59 00:06:43 980 SAUVAGE CLEMENT MIM 8 M 59 2 2 0
60 00:06:45 919 DJEBLI ADAM CAM 52 M 60 2 1 0
61 00:06:45 912 BAUDOIN RUBENS CAM 53 M 61 2 1 0
62 00:06:48 1061 SERRIES VINCENT CAM 54 M 62 2 4 0
63 00:06:49 939 PEEL MATHIEU CAM 55 M 63 2 1 0
64 00:06:52 1104 BADA THOMAS MIM 9 M 64 2 6 0
65 00:06:55 1171 ROBY MAXIME MIM 10 M 65 2 7 0
66 00:06:55 1100 YEFESS JONATHAN CAM 56 M 66 2 5 0
67 00:06:58 1144 BERTI HIPPOLYTE CAM 57 M 67 2 7 0
68 00:06:58 1103 AMARAGGI LOIC CAM 58 M 68 2 6 0
69 00:07:03 971 MARIDAT PIERRE CAM 59 M 69 2 2 0
70 00:07:04 914 BERETTA GABRIELE CAF 1 F 1 2 1 0
71 00:07:04 1080 FEDERICI HADRIEN CAM 60 M 70 2 5 0
72 00:07:05 952 BERGGREN AXEL CAM 61 M 71 2 2 0
73 00:07:06 999 GRANIER MATTHIEUX CAM 62 M 72 2 3 0
74 00:07:10 1127 MALINVAUD ELOI CAM 63 M 73 2 6 0
75 00:07:16 1125 LENA EMMANUEL MIM 11 M 74 2 6 0
76 00:07:20 974 PAILLET VIRGILE MIM 12 M 75 2 2 0
77 00:07:23 1082 GREGORIADES PIERRE CAM 64 M 76 2 5 0
78 00:07:27 963 HOUY PIERRE CAM 65 M 77 2 2 0
79 00:07:28 1102 ALLA JEAN-BAPTISTE CAM 66 M 78 2 6 0
80 00:07:28 1129 MILON TIMON MIM 13 M 79 2 6 0
81 00:07:28 1131 PAGO-CLAUSELLS MAXIMILIEN CAM 67 M 80 2 6 0
82 00:07:29 1078 DUVERGER-DE-CUY ADRIEN CAM 68 M 81 2 5 0
83 00:07:30 1148 CORBELLA GREGOIRE CAM 69 M 82 2 7 0
84 00:07:30 968 LECOUTRE JEREMIE MIM 14 M 83 2 2 0
85 00:07:32 1177 VASSALLUCCI PIERRE CAM 70 M 84 2 7 0
86 00:07:32 1109 BRIGE EDWIN CAM 71 M 85 2 6 0
87 00:07:36 996 FERRY ANTOINE CAM 72 M 86 2 3 0
88 00:07:39 1163 MAUGAIN MARC CAM 73 M 87 2 7 0
89 00:07:52 978 RICHER ALEXANDRE CAM 74 M 88 2 2 0
90 00:07:57 1026 BAYLE ADRIEN MIM 15 M 89 2 4 0
91 00:07:59 931 LASSERRE MAXIME MIM 16 M 90 2 1 0
92 00:07:59 970 MALOZON JUSTIN MIM 17 M 91 2 2 0
93 00:08:02 940 RODRIGUEZ IANIS CAM 75 M 92 2 1 0
94 00:08:04 1118 DEFAUT AXEL CAM 76 M 93 2 6 0
95 00:08:20 913 BENON BENJAMIN MIM 18 M 94 2 1 0
96 00:08:23 922 FLORENTIN LEO CAM 77 M 95 2 1 0
97 00:08:30 1156 IABRAZZO HEDDY CAM 78 M 96 2 7 0
98 00:08:46 1152 DUFOSSE-DEVILLARD FLORENT MIM 19 M 97 2 7 0
99 00:08:55 962 GUILLUY BAPTISTE CAM 79 M 98 2 2 0
100 00:09:37 915 BOURGAREL AYMERIC CAM 80 M 99 2 1 0